ADDS TAF Board (Experimental) INFO Settings

IDs: Format: Expanded Condensed

KJFK - New York/Kennedy Int, NY, US

Issued at 0535 UTC 30 Mar 2015
Updated at: 0555 UTC 30 Mar 2015
Time0551Z 30/06Z 30/07Z 30/08Z 30/09Z 30/10Z 30/11Z 30/12Z 30/13Z 30/14Z 30/15Z 30/16Z 30/17Z 30/18Z
Type OBS PRVL PRVL PRVL PRVL PRVL PRVL
  [TEMP]  
PRVL
  [TEMP]  
PRVL
  [TEMP]  
PRVL PRVL PRVL PRVL PRVL
VIS 10 >6 >6 >6 >6 >6 >6 >6 >6 >6 >6 >6 >6 >6
CIG 240 250 250 250 100 100 100
  [50]  
100
  [50]  
100
  [50]  
50 50 50 50 50
Cover BKN BKN BKN BKN OVC OVC OVC
  [BKN]  
OVC
  [BKN]  
OVC
  [BKN]  
BKN BKN BKN BKN BKN
FltCat VFR VFR VFR VFR VFR VFR VFR
  [VFR]  
VFR
  [VFR]  
VFR
  [VFR]  
VFR VFR VFR VFR VFR
WX -- -- -- -- -- -- --
  [-SHRA]  
--
  [-SHRA]  
--
  [-SHRA]  
-- -- -- -- --
WDir 210 220 220 220 220 220 220
[220]
220
[220]
220
[220]
230 230 230 230 250
WSpd 9 11 11 11 13 13 13
  [13]  
13
  [13]  
13
  [13]  
15 15 15 15 16
WGst -- -- -- -- -- -- --
  [--]  
--
  [--]  
--
  [--]  
-- -- -- -- 24
R04/22
XWnd -0 2 2 2 2 2 2 2 2 5 5 5 5 10
XGst -- -- -- -- -- -- 0 0 0 -- -- -- -- 15
HWnd -9 -11 -11 -11 -13 -13 -13 -13 -13 -14 -14 -14 -14 -12
HGst -- -- -- -- -- -- 0 0 0 -- -- -- -- -19
R13/31
XWnd -9 -11 -11 -11 -13 -13 -13 -13 -13 -14 -14 -14 -14 -12
XGst -- -- -- -- -- -- 0 0 0 -- -- -- -- -19
HWnd 0 -2 -2 -2 -2 -2 -2 -2 -2 -5 -5 -5 -5 -10
HGst -- -- -- -- -- -- 0 0 0 -- -- -- -- -15

NOTE: TEMPO conditions in [brackets]. Keep in mind TEMPO conditions might be better (lower impact) than prevailing conditions.

Raw TAF
KJFK 300535Z 3006/3112 22011KT P6SM BKN250
  FM300900 22013KT P6SM OVC100
  TEMPO 3011/3014 -SHRA BKN050
  FM301400 23015KT P6SM BKN050
  FM301800 25016G24KT P6SM BKN050
  FM302200 29017G26KT P6SM BKN050
  FM310100 30013KT P6SM FEW050
  FM310700 29009KT P6SM SKC


Raw METAR
KJFK 300551Z 21009KT 10SM BKN240 02/M08 A3010 RMK AO2 SLP194 T00221078 10028 20022 58019 $
KJFK 300451Z 22011KT 10SM BKN240 03/M07 A3013 RMK AO2 SLP203 T00281072 400781028 $
KJFK 300351Z 21012KT 10SM SCT260 03/M06 A3014 RMK AO2 SLP205 T00281056 $
KJFK 300251Z 21012KT 10SM BKN260 03/M03 A3016 RMK AO2 SLP213 T00281033 56007 $

METAR Board
Radar Display
Forecast Discussion

TAF Board Legend

Potential Impact
Threat None Slight Moderate High
Visibility (sm) ≥5.1 5.1>X≥3 3>X≥1 <1
Ceiling (100 ft) ≥30.1 30.1>X≥10 10>X≥5 <5
Wind Speed (kt) <10 10≤X<20 20≤X<30 ≥30
Wind Gust (kt) <15 15≤X<25 25≤X<35 ≥35
Weather No Wx Reported VCTS,-TS,-FZRA,SN TS,FZRA +TS,+FZRA,+SN